Un Akdeniz — TCTD2 — position and weather

sailwx.info

Track history (hours):
 
Tides and Currents Weather Stations Pressure Air Temp Water Temp Dewpoint Dewpoint Depression Visibility Wind Speed Wind Dir Waves Ship Positions

Un Akdeniz

Last reported at 2016-Dec-05 16:26 UTC. Time now 2016-Dec-06 12:11 UTC.
Position N 37°47' E 024°22'.

Length 193 m; draft 6.4 m.

Type: Ship (hazmat cat A). MMSI: 271002572.

Date/timePositionNaut miles runAvg speedWind from/ knotsBaromVisibWave heightAir tempDewpointWater temp
2016-Dec-05 16:26N 37°47' E 024°22'25 0.5
2016-Dec-03 18:09N 38°05' E 024°44'1219.5
2016-Dec-03 17:33N 37°55' E 024°37'2019.1
2016-Dec-03 16:32N 37°37' E 024°27'1919.0
2016-Dec-03 15:33N 37°22' E 024°13'61116.7
2016-Dec-02 03:05N 44°04' E 014°06'1019.5
2016-Dec-02 02:34N 44°12' E 013°58'2019.6
2016-Dec-02 01:34N 44°28' E 013°42'2019.6
2016-Dec-02 00:33N 44°45' E 013°28'2019.7
2016-Dec-01 23:33N 45°02' E 013°13'1919.1
2016-Dec-01 22:33N 45°20' E 013°04'1919.0
2016-Dec-01 21:34N 45°34' E 013°22'1716.8
2016-Dec-01 20:33N 45°39' E 013°45'0 0.3
2016-Dec-01 19:33N 45°39' E 013°45'0 0.0
2016-Dec-01 18:33N 45°39' E 013°45'0 0.0
2016-Dec-01 17:34N 45°39' E 013°45'0 0.0
2016-Dec-01 16:33N 45°39' E 013°45'0 0.0
2016-Dec-01 15:33N 45°39' E 013°45'0 0.0
2016-Dec-01 14:33N 45°39' E 013°45'0 0.0
2016-Dec-01 13:33N 45°39' E 013°45'1010.5
2016-Dec-01 12:33N 45°35' E 013°31'1919.0
2016-Dec-01 11:33N 45°20' E 013°14'2020.3
2016-Dec-01 10:33N 45°01' E 013°22'2019.9
2016-Dec-01 09:33N 44°43' E 013°36'2020.0
2016-Dec-01 08:34N 44°27' E 013°51'2020.1
2016-Dec-01 07:34N 44°11' E 014°09'60216.3
2016-Nov-29 18:33N 37°33' E 024°06'2120.9
2016-Nov-29 17:33N 37°48' E 024°23'27318.2
2016-Nov-29 02:33N 40°52' E 028°45'1919.7
2016-Nov-29 01:33N 40°50' E 029°11'4 4.4
2016-Nov-29 00:33N 40°51' E 029°16'0 0.0
2016-Nov-28 23:34N 40°51' E 029°16'0 0.0
2016-Nov-28 22:33N 40°51' E 029°16'0 0.0
2016-Nov-28 21:33N 40°51' E 029°16'0 0.0
2016-Nov-28 20:33N 40°51' E 029°16'0 0.0
2016-Nov-28 19:33N 40°51' E 029°16'0 0.0
2016-Nov-28 18:33N 40°51' E 029°16'0 0.0
2016-Nov-28 17:33N 40°51' E 029°16'0 0.0
2016-Nov-28 16:33N 40°51' E 029°16'0 0.0
2016-Nov-28 15:33N 40°51' E 029°16'8 8.4
2016-Nov-28 14:33N 40°49' E 029°06'25216.6
2016-Nov-27 23:20N 38°13' E 024°48'1620.3
2016-Nov-27 22:33N 37°59' E 024°39'2019.9
2016-Nov-27 21:33N 37°41' E 024°29'2219.7
2016-Nov-27 20:27N 37°23' E 024°13'61316.6
2016-Nov-26 07:28N 44°05' E 014°04'1819.7
2016-Nov-26 06:33N 44°20' E 013°50'1919.2
2016-Nov-26 05:33N 44°36' E 013°35'1918.9
2016-Nov-26 04:33N 44°52' E 013°21'1919.0
2016-Nov-26 03:33N 45°08' E 013°07'1717.4
2016-Nov-26 02:33N 45°25' E 013°08'1918.9
2016-Nov-26 01:33N 45°36' E 013°30'1010.5
2016-Nov-26 00:33N 45°39' E 013°45'0 0.0
2016-Nov-25 23:34N 45°39' E 013°45'0 0.0
2016-Nov-25 22:34N 45°39' E 013°45'0 0.0
2016-Nov-25 21:33N 45°39' E 013°45'0 0.0
2016-Nov-25 20:33N 45°39' E 013°45'0 0.0
2016-Nov-25 19:34N 45°39' E 013°45'0 0.0
2016-Nov-25 18:34N 45°39' E 013°45'0 0.0
2016-Nov-25 17:33N 45°39' E 013°45'0 0.0
2016-Nov-25 16:33N 45°39' E 013°45'  
Track history (hours):
 
Tides and Currents Weather Stations Pressure Air Temp Water Temp Dewpoint Dewpoint Depression Visibility Wind Speed Wind Dir Waves Ship Positions

Un Akdeniz

Last reported at 2016-Dec-05 16:26 UTC. Time now 2016-Dec-06 12:11 UTC.
Position N 37°47' E 024°22'.

Length 193 m; draft 6.4 m.

Type: Ship (hazmat cat A). MMSI: 271002572.

Date/timePositionNaut miles runAvg speedWind from/ knotsBaromVisibWave heightAir tempDewpointWater temp
2016-Dec-05 16:26N 37°47' E 024°22'25 0.5
2016-Dec-03 18:09N 38°05' E 024°44'1219.5
2016-Dec-03 17:33N 37°55' E 024°37'2019.1
2016-Dec-03 16:32N 37°37' E 024°27'1919.0
2016-Dec-03 15:33N 37°22' E 024°13'61116.7
2016-Dec-02 03:05N 44°04' E 014°06'1019.5
2016-Dec-02 02:34N 44°12' E 013°58'2019.6
2016-Dec-02 01:34N 44°28' E 013°42'2019.6
2016-Dec-02 00:33N 44°45' E 013°28'2019.7
2016-Dec-01 23:33N 45°02' E 013°13'1919.1
2016-Dec-01 22:33N 45°20' E 013°04'1919.0
2016-Dec-01 21:34N 45°34' E 013°22'1716.8
2016-Dec-01 20:33N 45°39' E 013°45'0 0.3
2016-Dec-01 19:33N 45°39' E 013°45'0 0.0
2016-Dec-01 18:33N 45°39' E 013°45'0 0.0
2016-Dec-01 17:34N 45°39' E 013°45'0 0.0
2016-Dec-01 16:33N 45°39' E 013°45'0 0.0
2016-Dec-01 15:33N 45°39' E 013°45'0 0.0
2016-Dec-01 14:33N 45°39' E 013°45'0 0.0
2016-Dec-01 13:33N 45°39' E 013°45'1010.5
2016-Dec-01 12:33N 45°35' E 013°31'1919.0
2016-Dec-01 11:33N 45°20' E 013°14'2020.3
2016-Dec-01 10:33N 45°01' E 013°22'2019.9
2016-Dec-01 09:33N 44°43' E 013°36'2020.0
2016-Dec-01 08:34N 44°27' E 013°51'2020.1
2016-Dec-01 07:34N 44°11' E 014°09'60216.3
2016-Nov-29 18:33N 37°33' E 024°06'2120.9
2016-Nov-29 17:33N 37°48' E 024°23'27318.2
2016-Nov-29 02:33N 40°52' E 028°45'1919.7
2016-Nov-29 01:33N 40°50' E 029°11'4 4.4
2016-Nov-29 00:33N 40°51' E 029°16'0 0.0
2016-Nov-28 23:34N 40°51' E 029°16'0 0.0
2016-Nov-28 22:33N 40°51' E 029°16'0 0.0
2016-Nov-28 21:33N 40°51' E 029°16'0 0.0
2016-Nov-28 20:33N 40°51' E 029°16'0 0.0
2016-Nov-28 19:33N 40°51' E 029°16'0 0.0
2016-Nov-28 18:33N 40°51' E 029°16'0 0.0
2016-Nov-28 17:33N 40°51' E 029°16'0 0.0
2016-Nov-28 16:33N 40°51' E 029°16'0 0.0
2016-Nov-28 15:33N 40°51' E 029°16'8 8.4
2016-Nov-28 14:33N 40°49' E 029°06'25216.6
2016-Nov-27 23:20N 38°13' E 024°48'1620.3
2016-Nov-27 22:33N 37°59' E 024°39'2019.9
2016-Nov-27 21:33N 37°41' E 024°29'2219.7
2016-Nov-27 20:27N 37°23' E 024°13'61316.6
2016-Nov-26 07:28N 44°05' E 014°04'1819.7
2016-Nov-26 06:33N 44°20' E 013°50'1919.2
2016-Nov-26 05:33N 44°36' E 013°35'1918.9
2016-Nov-26 04:33N 44°52' E 013°21'1919.0
2016-Nov-26 03:33N 45°08' E 013°07'1717.4
2016-Nov-26 02:33N 45°25' E 013°08'1918.9
2016-Nov-26 01:33N 45°36' E 013°30'1010.5
2016-Nov-26 00:33N 45°39' E 013°45'0 0.0
2016-Nov-25 23:34N 45°39' E 013°45'0 0.0
2016-Nov-25 22:34N 45°39' E 013°45'0 0.0
2016-Nov-25 21:33N 45°39' E 013°45'0 0.0
2016-Nov-25 20:33N 45°39' E 013°45'0 0.0
2016-Nov-25 19:34N 45°39' E 013°45'0 0.0
2016-Nov-25 18:34N 45°39' E 013°45'0 0.0
2016-Nov-25 17:33N 45°39' E 013°45'0 0.0
2016-Nov-25 16:33N 45°39' E 013°45'  

Dump ship's entire track history